Time;durP1;ratioP1;P1;durP2;ratioP2;P2;SDS_P1;SDS_P2;PMS_P1;PMS_P2;Temp;Humidity;BMP_temperature;BMP_pressure;BME280_temperature;BME280_humidity;BME280_pressure;Samples;Min_cycle;Max_cycle;Signal;HPM_P1;HPM_P2
2021/12/15 00:00:13;;;;;;;59.70;33.17;;;;;;;;;;5047016;28;20221;-73
2021/12/15 00:02:38;;;;;;;57.13;31.93;;;;;;;;;;5050654;28;20182;-72
2021/12/15 00:05:05;;;;;;;52.57;31.90;;;;;;;;;;5052346;28;20200;-72
2021/12/15 00:07:31;;;;;;;49.60;31.00;;;;;;;;;;5055415;28;20185;-72
2021/12/15 00:09:56;;;;;;;53.57;32.47;;;;;;;;;;5056289;28;20214;-72
2021/12/15 00:12:22;;;;;;;50.90;32.30;;;;;;;;;;5055254;28;20691;-72
2021/12/15 00:14:48;;;;;;;55.90;33.60;;;;;;;;;;5052304;28;20188;-71
2021/12/15 00:17:13;;;;;;;57.50;32.27;;;;;;;;;;5051990;28;20260;-72
2021/12/15 00:19:39;;;;;;;52.33;31.73;;;;;;;;;;5054926;28;20220;-71
2021/12/15 00:22:04;;;;;;;50.20;32.90;;;;;;;;;;5057358;28;20265;-72
2021/12/15 00:24:29;;;;;;;51.73;31.73;;;;;;;;;;5054952;28;20181;-71
2021/12/15 00:26:55;;;;;;;53.07;31.90;;;;;;;;;;5055587;28;20640;-71
2021/12/15 00:29:20;;;;;;;50.33;30.37;;;;;;;;;;5064932;28;20349;-72
2021/12/15 00:31:46;;;;;;;48.50;32.70;;;;;;;;;;5070845;28;20682;-71
2021/12/15 00:34:12;;;;;;;55.90;33.77;;;;;;;;;;5421373;22;20227;-76
2021/12/15 00:36:37;;;;;;;47.63;32.27;;;;;;;;;;5052346;28;20185;-76
2021/12/15 00:39:04;;;;;;;51.37;32.27;;;;;;;;;;5052037;28;20174;-76
2021/12/15 00:41:29;;;;;;;48.27;32.00;;;;;;;;;;5069416;28;20558;-77
2021/12/15 00:43:54;;;;;;;54.17;32.07;;;;;;;;;;5048773;28;20205;-76
2021/12/15 00:46:20;;;;;;;51.13;32.97;;;;;;;;;;5051489;28;20190;-77
2021/12/15 00:48:47;;;;;;;48.27;30.87;;;;;;;;;;5051305;28;20200;-77
2021/12/15 00:51:13;;;;;;;50.57;31.90;;;;;;;;;;5051135;28;20186;-76
2021/12/15 00:53:38;;;;;;;54.97;34.37;;;;;;;;;;5034647;28;20181;-77
2021/12/15 00:56:03;;;;;;;51.80;33.27;;;;;;;;;;5042702;28;20185;-76
2021/12/15 00:58:29;;;;;;;55.83;32.93;;;;;;;;;;5031775;28;22048;-77
2021/12/15 01:00:57;;;;;;;52.33;32.33;;;;;;;;;;5032345;28;20200;-77
2021/12/15 01:03:22;;;;;;;49.53;31.03;;;;;;;;;;5051053;28;20277;-77
2021/12/15 01:05:49;;;;;;;50.87;33.63;;;;;;;;;;5051862;28;20268;-77
2021/12/15 01:08:17;;;;;;;50.93;31.70;;;;;;;;;;5074399;28;20186;-76
2021/12/15 01:11:34;;;;;;;49.83;31.93;;;;;;;;;;5051815;28;20609;-75
2021/12/15 01:21:43;;;;;;;49.57;32.17;;;;;;;;;;5044258;28;20192;-75
2021/12/15 01:24:08;;;;;;;46.63;31.07;;;;;;;;;;5050400;28;20198;-75
2021/12/15 01:26:34;;;;;;;53.70;32.60;;;;;;;;;;5052975;28;20181;-76
2021/12/15 01:28:59;;;;;;;48.77;33.17;;;;;;;;;;5050408;28;20235;-75
2021/12/15 01:31:24;;;;;;;47.03;31.63;;;;;;;;;;5050125;28;20658;-76
2021/12/15 01:33:49;;;;;;;52.33;32.47;;;;;;;;;;5053122;28;20221;-76
2021/12/15 01:36:15;;;;;;;58.30;32.97;;;;;;;;;;5090279;28;20203;-76
2021/12/15 01:38:41;;;;;;;50.50;33.77;;;;;;;;;;5089061;28;20178;-75
2021/12/15 01:41:07;;;;;;;51.00;31.57;;;;;;;;;;5092617;28;20786;-76
2021/12/15 01:49:07;;;;;;;53.23;31.43;;;;;;;;;;5088909;28;20234;-75
2021/12/15 01:51:32;;;;;;;51.23;32.87;;;;;;;;;;5088075;28;20230;-75
2021/12/15 01:53:58;;;;;;;50.50;32.80;;;;;;;;;;5092142;28;20201;-77
2021/12/15 01:56:23;;;;;;;49.43;32.63;;;;;;;;;;5098321;28;20182;-76
2021/12/15 01:58:49;;;;;;;55.30;32.60;;;;;;;;;;5089145;28;20172;-76
2021/12/15 02:01:14;;;;;;;52.83;33.17;;;;;;;;;;5098443;28;20542;-76
2021/12/15 02:03:40;;;;;;;49.87;32.80;;;;;;;;;;5076277;28;20607;-76
2021/12/15 02:06:06;;;;;;;53.20;34.40;;;;;;;;;;5090530;28;20321;-77
2021/12/15 02:08:32;;;;;;;54.00;33.83;;;;;;;;;;5095038;28;20697;-76
2021/12/15 02:10:58;;;;;;;54.20;32.03;;;;;;;;;;5079292;28;20181;-76
2021/12/15 02:13:23;;;;;;;55.00;35.03;;;;;;;;;;5090137;28;20781;-76
2021/12/15 02:15:50;;;;;;;51.43;32.77;;;;;;;;;;5089922;28;20172;-76
2021/12/15 02:18:17;;;;;;;55.73;34.80;;;;;;;;;;5074713;28;20653;-75
2021/12/15 02:20:53;;;;;;;60.57;34.00;;;;;;;;;;5089501;28;20184;-76
2021/12/15 02:23:22;;;;;;;57.80;34.23;;;;;;;;;;5094646;28;20171;-76
2021/12/15 02:25:49;;;;;;;49.73;31.37;;;;;;;;;;5086788;28;20176;-76
2021/12/15 02:28:15;;;;;;;53.27;34.80;;;;;;;;;;5088158;28;20249;-77
2021/12/15 02:31:02;;;;;;;54.03;33.13;;;;;;;;;;5095548;28;20184;-76
2021/12/15 02:38:45;;;;;;;52.33;32.70;;;;;;;;;;5089625;28;20178;-76
2021/12/15 02:41:19;;;;;;;55.50;33.50;;;;;;;;;;5089407;28;20255;-77
2021/12/15 02:43:50;;;;;;;56.80;34.17;;;;;;;;;;5092406;28;20222;-76
2021/12/15 02:46:15;;;;;;;58.30;34.17;;;;;;;;;;5098640;28;20180;-76
2021/12/15 02:48:40;;;;;;;53.63;33.47;;;;;;;;;;5083751;28;20228;-77
2021/12/15 02:51:06;;;;;;;56.37;34.00;;;;;;;;;;5093364;28;20180;-76
2021/12/15 02:53:31;;;;;;;54.07;33.53;;;;;;;;;;5089001;28;20235;-77
2021/12/15 02:55:56;;;;;;;54.47;34.37;;;;;;;;;;5072638;28;20176;-77
2021/12/15 02:58:22;;;;;;;55.57;34.07;;;;;;;;;;5089918;28;20183;-76
2021/12/15 03:00:57;;;;;;;51.67;32.50;;;;;;;;;;5088705;28;20180;-76
2021/12/15 03:06:08;;;;;;;55.53;33.17;;;;;;;;;;5090396;28;20241;-77
2021/12/15 03:16:45;;;;;;;55.30;33.83;;;;;;;;;;5087842;28;20667;-77
2021/12/15 03:19:11;;;;;;;53.47;33.23;;;;;;;;;;5092004;28;20176;-75
2021/12/15 03:21:36;;;;;;;50.97;32.10;;;;;;;;;;5094843;28;20188;-75
2021/12/15 03:24:07;;;;;;;52.67;34.00;;;;;;;;;;5092270;28;20204;-77
2021/12/15 03:26:38;;;;;;;50.03;32.27;;;;;;;;;;5093440;28;20198;-77
2021/12/15 03:37:32;;;;;;;48.93;30.43;;;;;;;;;;5077203;28;20208;-77
2021/12/15 03:39:57;;;;;;;50.17;32.30;;;;;;;;;;5102127;28;20191;-77
2021/12/15 03:42:27;;;;;;;50.58;32.38;;;;;;;;;;5075605;28;20180;-77
2021/12/15 03:44:52;;;;;;;47.13;31.23;;;;;;;;;;5091869;28;20208;-77
2021/12/15 03:47:23;;;;;;;54.70;34.03;;;;;;;;;;5093771;28;20191;-76
2021/12/15 03:49:50;;;;;;;49.90;31.57;;;;;;;;;;5099596;28;20256;-77
2021/12/15 03:52:15;;;;;;;53.63;32.13;;;;;;;;;;5092632;28;20235;-76
2021/12/15 03:54:41;;;;;;;52.70;31.60;;;;;;;;;;5092319;28;20281;-77
2021/12/15 03:57:06;;;;;;;54.07;32.17;;;;;;;;;;5092676;28;20704;-76
2021/12/15 03:59:34;;;;;;;51.57;31.80;;;;;;;;;;5090309;28;20633;-77
2021/12/15 04:01:59;;;;;;;55.00;31.97;;;;;;;;;;5093017;28;20186;-76
2021/12/15 04:04:24;;;;;;;53.67;31.13;;;;;;;;;;5095880;28;20624;-76
2021/12/15 04:06:49;;;;;;;47.47;33.03;;;;;;;;;;5098722;28;20655;-76
2021/12/15 04:09:15;;;;;;;52.10;30.60;;;;;;;;;;5092420;28;20172;-76
2021/12/15 04:11:41;;;;;;;47.73;31.77;;;;;;;;;;5097893;28;20543;-77
2021/12/15 04:14:10;;;;;;;49.53;32.23;;;;;;;;;;5094611;28;20680;-77
2021/12/15 04:19:04;;;;;;;47.83;32.43;;;;;;;;;;5095071;28;20180;-76
2021/12/15 04:21:29;;;;;;;52.83;31.80;;;;;;;;;;5089895;28;20179;-76
2021/12/15 04:23:55;;;;;;;49.37;30.53;;;;;;;;;;5094489;28;20204;-76
2021/12/15 04:26:20;;;;;;;52.93;32.47;;;;;;;;;;5074712;28;20172;-76
2021/12/15 04:28:46;;;;;;;47.77;31.13;;;;;;;;;;5090916;28;20184;-76
2021/12/15 04:31:14;;;;;;;49.07;29.57;;;;;;;;;;5094320;28;20754;-76
2021/12/15 04:33:39;;;;;;;47.17;30.63;;;;;;;;;;5094426;28;20306;-77
2021/12/15 04:36:08;;;;;;;61.13;32.67;;;;;;;;;;5093528;28;20184;-76
2021/12/15 04:38:34;;;;;;;56.33;31.63;;;;;;;;;;5082873;28;20176;-77
2021/12/15 04:41:03;;;;;;;51.37;31.47;;;;;;;;;;5090101;28;20181;-77
2021/12/15 04:43:32;;;;;;;58.20;31.13;;;;;;;;;;5093752;28;20265;-77
2021/12/15 04:45:58;;;;;;;52.40;31.47;;;;;;;;;;5077067;28;20258;-77
2021/12/15 04:48:24;;;;;;;46.77;29.57;;;;;;;;;;5100028;28;20807;-77
2021/12/15 04:50:49;;;;;;;56.27;32.23;;;;;;;;;;5092102;28;20209;-76
2021/12/15 04:53:14;;;;;;;52.73;31.67;;;;;;;;;;5073862;28;20249;-76
2021/12/15 04:55:40;;;;;;;52.13;30.17;;;;;;;;;;5100666;28;20191;-77
2021/12/15 04:58:06;;;;;;;53.87;33.23;;;;;;;;;;5098466;28;20182;-77
2021/12/15 05:00:32;;;;;;;53.77;31.63;;;;;;;;;;5099622;28;20615;-77
2021/12/15 05:02:58;;;;;;;53.90;32.13;;;;;;;;;;5090845;28;20668;-77
2021/12/15 05:05:25;;;;;;;59.20;31.43;;;;;;;;;;5090180;28;20200;-77
2021/12/15 05:07:50;;;;;;;53.90;30.67;;;;;;;;;;5093966;28;20176;-77
2021/12/15 05:10:16;;;;;;;53.37;31.27;;;;;;;;;;5094397;28;20679;-77
2021/12/15 05:12:42;;;;;;;55.07;31.70;;;;;;;;;;5090672;28;20200;-77
2021/12/15 05:15:08;;;;;;;51.97;31.73;;;;;;;;;;5090182;28;20196;-77
2021/12/15 05:17:33;;;;;;;57.20;32.23;;;;;;;;;;5091047;28;20648;-77
2021/12/15 05:20:02;;;;;;;54.93;32.67;;;;;;;;;;5087090;28;20589;-78
2021/12/15 05:22:28;;;;;;;59.60;31.77;;;;;;;;;;5104733;28;20680;-78
2021/12/15 05:24:53;;;;;;;52.47;30.20;;;;;;;;;;5099579;28;20262;-77
2021/12/15 05:27:18;;;;;;;56.87;32.37;;;;;;;;;;5092014;28;20180;-77
2021/12/15 05:29:45;;;;;;;49.20;30.13;;;;;;;;;;5089505;28;20245;-77
2021/12/15 05:32:10;;;;;;;55.33;32.63;;;;;;;;;;5078333;28;20207;-77
2021/12/15 05:34:37;;;;;;;56.03;31.70;;;;;;;;;;5098221;28;20208;-77
2021/12/15 05:37:03;;;;;;;53.10;30.37;;;;;;;;;;5098663;28;20203;-77
2021/12/15 05:39:29;;;;;;;57.67;32.93;;;;;;;;;;5090014;28;20264;-76
2021/12/15 05:41:54;;;;;;;55.40;32.17;;;;;;;;;;5098463;28;20211;-77
2021/12/15 05:44:20;;;;;;;63.00;32.60;;;;;;;;;;5091984;28;20208;-77
2021/12/15 05:46:45;;;;;;;59.37;33.77;;;;;;;;;;5095869;28;20263;-77
2021/12/15 05:49:11;;;;;;;61.37;32.73;;;;;;;;;;5090561;28;20223;-78
2021/12/15 05:51:37;;;;;;;53.67;30.90;;;;;;;;;;5093361;28;20198;-77
2021/12/15 05:54:03;;;;;;;60.73;33.27;;;;;;;;;;5092991;28;20265;-77
2021/12/15 05:56:28;;;;;;;61.27;30.83;;;;;;;;;;5090600;28;20176;-77
2021/12/15 05:58:53;;;;;;;57.37;32.40;;;;;;;;;;5087716;28;20184;-77
2021/12/15 06:01:18;;;;;;;69.07;33.93;;;;;;;;;;5070591;28;20185;-77
2021/12/15 06:03:44;;;;;;;62.57;32.83;;;;;;;;;;5095122;28;20200;-77
2021/12/15 06:06:09;;;;;;;70.93;33.50;;;;;;;;;;5094240;28;20173;-77
2021/12/15 06:08:34;;;;;;;60.83;31.83;;;;;;;;;;5097273;28;20176;-76
2021/12/15 06:10:59;;;;;;;62.80;33.30;;;;;;;;;;5091371;28;20255;-77
2021/12/15 06:13:27;;;;;;;68.00;33.07;;;;;;;;;;5090159;28;20580;-76
2021/12/15 06:15:52;;;;;;;64.33;32.67;;;;;;;;;;5088220;28;20597;-77
2021/12/15 06:18:18;;;;;;;65.63;33.30;;;;;;;;;;5091642;28;20168;-77
2021/12/15 06:20:44;;;;;;;64.97;34.77;;;;;;;;;;5093631;28;20551;-77
2021/12/15 06:23:16;;;;;;;69.80;34.27;;;;;;;;;;5097910;28;20697;-77
2021/12/15 06:25:41;;;;;;;73.10;33.77;;;;;;;;;;5088568;28;20282;-77
2021/12/15 06:28:07;;;;;;;70.17;34.20;;;;;;;;;;5092108;28;20272;-77
2021/12/15 06:30:33;;;;;;;83.97;36.47;;;;;;;;;;5093067;28;20199;-76
2021/12/15 06:32:59;;;;;;;69.37;31.83;;;;;;;;;;5094288;28;20262;-76
2021/12/15 06:35:24;;;;;;;71.47;34.07;;;;;;;;;;5096909;28;20214;-75
2021/12/15 06:37:49;;;;;;;70.87;36.47;;;;;;;;;;5088012;28;20241;-75
2021/12/15 06:40:14;;;;;;;68.00;34.23;;;;;;;;;;5099650;28;20255;-75
2021/12/15 06:42:40;;;;;;;72.27;32.63;;;;;;;;;;5072445;28;20180;-75
2021/12/15 06:45:07;;;;;;;77.57;35.07;;;;;;;;;;5090500;28;20222;-78
2021/12/15 06:57:30;;;;;;;76.40;35.17;;;;;;;;;;5089089;28;20207;-76
2021/12/15 06:58:23;;;;;;;71.73;34.03;;;;;;;;;;5092012;28;20219;-75
2021/12/15 07:00:50;;;;;;;73.93;34.20;;;;;;;;;;5098221;28;20180;-78
2021/12/15 07:03:16;;;;;;;72.53;33.63;;;;;;;;;;5103792;28;20192;-75
2021/12/15 07:05:42;;;;;;;71.63;33.70;;;;;;;;;;5093430;28;20200;-76
2021/12/15 07:08:08;;;;;;;70.30;32.63;;;;;;;;;;5093073;28;20263;-75
2021/12/15 07:10:34;;;;;;;68.33;31.97;;;;;;;;;;5103357;28;20187;-75
2021/12/15 07:13:00;;;;;;;79.13;34.63;;;;;;;;;;5093891;28;20207;-77
2021/12/15 07:15:26;;;;;;;77.23;32.87;;;;;;;;;;5091929;28;20245;-78
2021/12/15 07:17:54;;;;;;;69.23;35.67;;;;;;;;;;5073731;28;20255;-75
2021/12/15 07:20:38;;;;;;;66.93;32.47;;;;;;;;;;5101030;28;20176;-78
2021/12/15 07:23:15;;;;;;;62.00;31.47;;;;;;;;;;5096605;28;20195;-75
2021/12/15 07:25:41;;;;;;;67.20;33.60;;;;;;;;;;5092126;28;20227;-75
2021/12/15 07:28:07;;;;;;;64.50;32.67;;;;;;;;;;5093550;28;20651;-77
2021/12/15 07:30:32;;;;;;;76.27;34.23;;;;;;;;;;5093753;28;20188;-75
2021/12/15 07:32:58;;;;;;;65.97;33.23;;;;;;;;;;5090159;28;20212;-76
2021/12/15 07:35:24;;;;;;;70.47;34.23;;;;;;;;;;5102911;28;20415;-75
2021/12/15 07:37:49;;;;;;;72.33;33.57;;;;;;;;;;5093494;28;20361;-76
2021/12/15 07:40:20;;;;;;;63.20;31.93;;;;;;;;;;5098734;28;20275;-76
2021/12/15 07:45:31;;;;;;;64.90;31.23;;;;;;;;;;5098286;28;20256;-76
2021/12/15 07:47:58;;;;;;;65.53;32.50;;;;;;;;;;5102669;28;20263;-76
2021/12/15 07:50:23;;;;;;;59.17;31.83;;;;;;;;;;5087809;28;20176;-76
2021/12/15 07:52:49;;;;;;;64.63;32.10;;;;;;;;;;5094344;28;20560;-76
2021/12/15 07:55:14;;;;;;;65.83;33.20;;;;;;;;;;5077864;28;20574;-76
2021/12/15 07:57:40;;;;;;;61.93;32.37;;;;;;;;;;5095888;28;20559;-77
2021/12/15 08:00:06;;;;;;;64.17;31.77;;;;;;;;;;5092519;28;20201;-76
2021/12/15 08:02:31;;;;;;;67.40;31.63;;;;;;;;;;5093663;28;20184;-76
2021/12/15 08:04:56;;;;;;;63.67;32.57;;;;;;;;;;5093267;28;20200;-76
2021/12/15 08:07:22;;;;;;;67.70;32.87;;;;;;;;;;5099818;28;20192;-76
2021/12/15 08:09:49;;;;;;;67.37;31.73;;;;;;;;;;5095053;28;20310;-76
2021/12/15 08:12:14;;;;;;;71.93;32.50;;;;;;;;;;5092884;28;20207;-79
2021/12/15 08:14:40;;;;;;;67.47;33.50;;;;;;;;;;5094980;28;20200;-75
2021/12/15 08:17:05;;;;;;;64.47;32.60;;;;;;;;;;5092794;28;20173;-78
2021/12/15 08:19:30;;;;;;;63.77;31.37;;;;;;;;;;5097342;28;20539;-77
2021/12/15 08:21:55;;;;;;;69.57;33.80;;;;;;;;;;5109346;28;20186;-77
2021/12/15 08:24:20;;;;;;;68.87;30.17;;;;;;;;;;5092463;28;20703;-77
2021/12/15 08:26:46;;;;;;;70.50;31.70;;;;;;;;;;5099416;28;20179;-76
2021/12/15 08:29:11;;;;;;;69.37;33.03;;;;;;;;;;5091870;28;20203;-77
2021/12/15 08:31:36;;;;;;;70.20;32.03;;;;;;;;;;5094188;28;20172;-77
2021/12/15 08:34:02;;;;;;;66.37;33.53;;;;;;;;;;5093377;28;20227;-78
2021/12/15 08:36:27;;;;;;;65.70;31.63;;;;;;;;;;5092995;28;20259;-78
2021/12/15 08:38:52;;;;;;;66.63;30.73;;;;;;;;;;5091379;28;20206;-78
2021/12/15 08:41:22;;;;;;;64.20;31.70;;;;;;;;;;5102047;28;20643;-77
2021/12/15 08:43:48;;;;;;;60.50;31.37;;;;;;;;;;5091520;28;20204;-77
2021/12/15 08:46:17;;;;;;;59.23;30.30;;;;;;;;;;5094347;28;20187;-77
2021/12/15 08:48:43;;;;;;;68.83;31.40;;;;;;;;;;5097763;28;20188;-77
2021/12/15 08:51:09;;;;;;;66.70;32.03;;;;;;;;;;5093196;28;20245;-77
2021/12/15 08:53:35;;;;;;;61.90;31.57;;;;;;;;;;5095173;28;20227;-78
2021/12/15 08:56:01;;;;;;;62.77;33.53;;;;;;;;;;5092738;28;20175;-77
2021/12/15 08:58:27;;;;;;;57.33;28.70;;;;;;;;;;5090701;28;20632;-77
2021/12/15 09:00:54;;;;;;;60.80;29.90;;;;;;;;;;5079483;28;20180;-77
2021/12/15 09:03:20;;;;;;;55.23;30.47;;;;;;;;;;5091091;28;20212;-77
2021/12/15 09:05:49;;;;;;;58.07;30.17;;;;;;;;;;5091688;28;20691;-77
2021/12/15 09:08:15;;;;;;;53.30;28.40;;;;;;;;;;5079612;28;20192;-77
2021/12/15 09:10:42;;;;;;;53.40;28.10;;;;;;;;;;5093450;28;20176;-77
2021/12/15 09:13:08;;;;;;;49.57;28.13;;;;;;;;;;5092762;28;20695;-77
2021/12/15 09:15:33;;;;;;;51.77;27.07;;;;;;;;;;5104865;28;20199;-78
2021/12/15 09:17:59;;;;;;;53.00;28.27;;;;;;;;;;5090121;28;20180;-77
2021/12/15 09:20:25;;;;;;;47.43;27.60;;;;;;;;;;5092857;28;20237;-77
2021/12/15 09:22:51;;;;;;;51.17;28.17;;;;;;;;;;5091429;28;20235;-77
2021/12/15 09:25:16;;;;;;;49.97;25.20;;;;;;;;;;5099893;28;20719;-77
2021/12/15 09:27:43;;;;;;;53.80;28.47;;;;;;;;;;5096138;28;20675;-78
2021/12/15 09:30:09;;;;;;;47.80;26.37;;;;;;;;;;5103074;28;20228;-77
2021/12/15 09:32:35;;;;;;;46.90;26.70;;;;;;;;;;5098486;28;20331;-77
2021/12/15 09:35:00;;;;;;;45.13;26.37;;;;;;;;;;5094040;28;20752;-77
2021/12/15 09:37:26;;;;;;;45.53;24.97;;;;;;;;;;5093781;28;21169;-77
2021/12/15 09:39:51;;;;;;;45.40;26.03;;;;;;;;;;5093504;28;20176;-78
2021/12/15 09:42:20;;;;;;;45.87;25.70;;;;;;;;;;5093833;28;20574;-77
2021/12/15 09:44:49;;;;;;;44.50;26.67;;;;;;;;;;5089395;28;20593;-77
2021/12/15 09:47:34;;;;;;;39.00;24.50;;;;;;;;;;5089761;28;20176;-78
2021/12/15 10:04:16;;;;;;;34.53;21.97;;;;;;;;;;5090835;28;20260;-77
2021/12/15 10:19:36;;;;;;;31.77;20.00;;;;;;;;;;5092381;28;20191;-76
2021/12/15 10:22:01;;;;;;;34.33;21.53;;;;;;;;;;5092159;28;20195;-77
2021/12/15 10:24:28;;;;;;;33.43;21.73;;;;;;;;;;5102235;28;20556;-77
2021/12/15 10:26:55;;;;;;;30.37;21.60;;;;;;;;;;5096027;28;20643;-77
2021/12/15 10:29:21;;;;;;;35.00;21.67;;;;;;;;;;5088094;28;20223;-77
2021/12/15 10:31:55;;;;;;;33.77;22.13;;;;;;;;;;5100826;28;20179;-77
2021/12/15 10:34:21;;;;;;;33.57;21.37;;;;;;;;;;5090928;28;20222;-77
2021/12/15 10:36:47;;;;;;;33.80;21.63;;;;;;;;;;5083577;28;20184;-77
2021/12/15 10:39:12;;;;;;;35.60;20.87;;;;;;;;;;5082727;28;20183;-77
2021/12/15 10:41:39;;;;;;;36.13;21.43;;;;;;;;;;5075208;28;20167;-77
2021/12/15 10:44:06;;;;;;;32.20;21.43;;;;;;;;;;5087339;28;20204;-76
2021/12/15 10:46:34;;;;;;;30.60;20.60;;;;;;;;;;5098105;28;20176;-77
2021/12/15 10:49:02;;;;;;;35.73;21.30;;;;;;;;;;5080266;28;20537;-77
2021/12/15 10:51:39;;;;;;;33.17;20.40;;;;;;;;;;5090892;28;20172;-78
2021/12/15 10:54:06;;;;;;;31.03;20.60;;;;;;;;;;5097382;28;20211;-77
2021/12/15 10:56:34;;;;;;;36.47;22.00;;;;;;;;;;5064748;28;20527;-78
2021/12/15 10:59:01;;;;;;;37.03;20.97;;;;;;;;;;5095006;28;20318;-77
2021/12/15 11:01:55;;;;;;;31.30;21.20;;;;;;;;;;5072154;28;20187;-78
2021/12/15 11:04:24;;;;;;;34.30;19.33;;;;;;;;;;5069823;28;21524;-78
2021/12/15 11:07:08;;;;;;;35.73;20.67;;;;;;;;;;5093969;28;20676;-75
2021/12/15 11:09:39;;;;;;;27.37;18.30;;;;;;;;;;5090043;28;20248;-78
2021/12/15 11:12:09;;;;;;;34.13;19.60;;;;;;;;;;5101953;28;20195;-75
2021/12/15 11:14:36;;;;;;;31.87;20.27;;;;;;;;;;5086064;28;20200;-77
2021/12/15 11:17:03;;;;;;;31.33;22.07;;;;;;;;;;5095916;28;20180;-77
2021/12/15 11:19:49;;;;;;;30.43;18.10;;;;;;;;;;5085820;28;20259;-77
2021/12/15 11:22:32;;;;;;;28.93;19.40;;;;;;;;;;5093236;28;20172;-77
2021/12/15 11:24:58;;;;;;;28.10;17.30;;;;;;;;;;5091770;28;20704;-77
2021/12/15 11:27:23;;;;;;;28.03;18.40;;;;;;;;;;5075487;28;20180;-77
2021/12/15 11:29:49;;;;;;;22.97;16.50;;;;;;;;;;5093519;28;20259;-78
2021/12/15 11:32:33;;;;;;;23.63;15.80;;;;;;;;;;5088739;28;20211;-79
2021/12/15 11:35:24;;;;;;;24.57;14.77;;;;;;;;;;5091816;28;20208;-79
2021/12/15 11:37:55;;;;;;;24.87;15.77;;;;;;;;;;5086762;28;20185;-78
2021/12/15 11:40:32;;;;;;;20.00;12.60;;;;;;;;;;5096894;28;20188;-77
2021/12/15 11:42:58;;;;;;;25.47;14.27;;;;;;;;;;5096306;28;20309;-77
2021/12/15 11:45:23;;;;;;;19.30;13.10;;;;;;;;;;5104435;28;20287;-78
2021/12/15 11:47:49;;;;;;;27.33;14.57;;;;;;;;;;5079473;28;20187;-77
2021/12/15 11:50:17;;;;;;;20.87;13.53;;;;;;;;;;5103552;28;20175;-77
2021/12/15 11:52:43;;;;;;;20.10;13.65;;;;;;;;;;5100017;28;20206;-77
2021/12/15 11:55:22;;;;;;;23.80;13.57;;;;;;;;;;5098460;28;20206;-78
2021/12/15 11:57:48;;;;;;;18.23;13.27;;;;;;;;;;5090365;28;20176;-77
2021/12/15 12:00:15;;;;;;;21.90;14.05;;;;;;;;;;5076708;28;20180;-77
2021/12/15 12:02:47;;;;;;;23.50;13.50;;;;;;;;;;5094762;28;20192;-78
2021/12/15 12:05:26;;;;;;;22.98;16.58;;;;;;;;;;5093396;28;20192;-77
2021/12/15 12:07:54;;;;;;;18.27;13.10;;;;;;;;;;5094861;28;20185;-78
2021/12/15 12:10:21;;;;;;;20.67;13.77;;;;;;;;;;5100464;28;20172;-77
2021/12/15 12:12:53;;;;;;;23.63;14.32;;;;;;;;;;5090102;28;20204;-78
2021/12/15 12:15:24;;;;;;;20.20;14.73;;;;;;;;;;5091998;28;20240;-78
2021/12/15 12:17:55;;;;;;;20.60;13.80;;;;;;;;;;5095720;28;20267;-78
2021/12/15 12:20:24;;;;;;;25.85;13.70;;;;;;;;;;5101042;28;20257;-77
2021/12/15 12:22:50;;;;;;;19.15;13.32;;;;;;;;;;5099964;28;20562;-77
2021/12/15 12:25:20;;;;;;;18.25;14.40;;;;;;;;;;5093104;28;20214;-77
2021/12/15 12:27:47;;;;;;;21.35;14.93;;;;;;;;;;5085119;28;20200;-78
2021/12/15 12:30:19;;;;;;;22.17;14.57;;;;;;;;;;5091430;28;20183;-78
2021/12/15 12:32:44;;;;;;;23.33;15.10;;;;;;;;;;5084615;28;20204;-78
2021/12/15 12:35:10;;;;;;;23.23;15.60;;;;;;;;;;5069792;28;20591;-77
2021/12/15 12:37:36;;;;;;;22.52;15.45;;;;;;;;;;5095083;28;20531;-76
2021/12/15 12:40:15;;;;;;;24.33;15.23;;;;;;;;;;5091178;28;20187;-76
2021/12/15 12:42:43;;;;;;;20.40;15.45;;;;;;;;;;5088572;28;20224;-76
2021/12/15 12:45:17;;;;;;;20.63;13.98;;;;;;;;;;5089795;28;20215;-77
2021/12/15 12:48:01;;;;;;;20.15;14.35;;;;;;;;;;5100822;22;20251;-72
2021/12/15 12:59:25;;;;;;;20.27;14.35;;;;;;;;;;4914823;29;20222;-74
2021/12/15 13:01:51;;;;;;;18.17;13.30;;;;;;;;;;4942414;28;20192;-74
2021/12/15 13:04:16;;;;;;;21.07;14.73;;;;;;;;;;5001911;28;20249;-72
2021/12/15 13:06:42;;;;;;;24.00;14.15;;;;;;;;;;5035655;28;20209;-72
2021/12/15 13:09:16;;;;;;;19.03;14.23;;;;;;;;;;5031344;28;20178;-73
2021/12/15 13:11:43;;;;;;;21.23;15.10;;;;;;;;;;5030663;28;20732;-73
2021/12/15 13:14:13;;;;;;;21.87;15.10;;;;;;;;;;5032609;28;20181;-72
2021/12/15 13:16:50;;;;;;;20.63;14.67;;;;;;;;;;5029984;28;20620;-72
2021/12/15 13:19:15;;;;;;;20.40;13.93;;;;;;;;;;5032473;28;20200;-73
2021/12/15 13:21:59;;;;;;;20.60;15.52;;;;;;;;;;5032814;28;20261;-72
2021/12/15 13:30:49;;;;;;;21.15;15.10;;;;;;;;;;5029173;28;20172;-73
2021/12/15 13:33:17;;;;;;;22.40;16.07;;;;;;;;;;5030368;28;20206;-72
2021/12/15 13:35:47;;;;;;;22.00;15.38;;;;;;;;;;5037005;28;20635;-72
2021/12/15 13:38:14;;;;;;;21.67;15.77;;;;;;;;;;5033001;28;20206;-73
2021/12/15 13:40:53;;;;;;;20.60;15.30;;;;;;;;;;5031002;28;20182;-73
2021/12/15 13:43:35;;;;;;;19.30;14.53;;;;;;;;;;5035598;28;20182;-72
2021/12/15 13:46:02;;;;;;;26.85;15.32;;;;;;;;;;5033970;28;20339;-72
2021/12/15 13:48:46;;;;;;;22.23;15.47;;;;;;;;;;5035586;28;20658;-72
2021/12/15 13:51:11;;;;;;;23.88;15.27;;;;;;;;;;5033531;28;20239;-73
2021/12/15 13:53:36;;;;;;;19.00;14.73;;;;;;;;;;5031331;28;20205;-73
2021/12/15 13:56:02;;;;;;;21.85;14.43;;;;;;;;;;5040215;28;20532;-72
2021/12/15 13:58:30;;;;;;;23.40;16.33;;;;;;;;;;5036681;28;20557;-73
2021/12/15 14:00:58;;;;;;;18.95;13.60;;;;;;;;;;5031547;28;20202;-73
2021/12/15 14:03:29;;;;;;;21.92;15.80;;;;;;;;;;5047547;28;20724;-73
2021/12/15 14:05:57;;;;;;;23.85;15.48;;;;;;;;;;5039311;28;20614;-72
2021/12/15 14:08:28;;;;;;;22.08;14.63;;;;;;;;;;5032726;28;20697;-75
2021/12/15 14:11:08;;;;;;;20.42;14.77;;;;;;;;;;5028669;28;20687;-74
2021/12/15 14:13:38;;;;;;;22.85;15.45;;;;;;;;;;5028207;28;20288;-73
2021/12/15 14:16:04;;;;;;;28.60;16.20;;;;;;;;;;5027419;28;20174;-73
2021/12/15 14:18:31;;;;;;;21.53;15.83;;;;;;;;;;5030174;28;20166;-73
2021/12/15 14:21:02;;;;;;;19.50;15.90;;;;;;;;;;5034439;28;20224;-73
2021/12/15 14:23:31;;;;;;;27.60;17.57;;;;;;;;;;5032806;28;20572;-76
2021/12/15 14:25:57;;;;;;;23.88;15.85;;;;;;;;;;5030139;28;20186;-73
2021/12/15 14:28:31;;;;;;;22.20;15.93;;;;;;;;;;5041145;28;20178;-72
2021/12/15 14:31:05;;;;;;;21.80;14.93;;;;;;;;;;5035554;28;20212;-73
2021/12/15 14:33:33;;;;;;;27.80;16.95;;;;;;;;;;5041067;28;20201;-72
2021/12/15 14:36:04;;;;;;;25.50;16.67;;;;;;;;;;5043803;28;20257;-72
2021/12/15 14:38:56;;;;;;;25.57;17.37;;;;;;;;;;5030891;28;20669;-72
2021/12/15 14:41:28;;;;;;;28.00;18.33;;;;;;;;;;5041243;28;20178;-74
2021/12/15 14:43:55;;;;;;;28.37;16.57;;;;;;;;;;5034748;28;20232;-74
2021/12/15 14:46:28;;;;;;;23.63;16.30;;;;;;;;;;5044773;28;20627;-73
2021/12/15 14:49:08;;;;;;;23.03;16.77;;;;;;;;;;5041405;28;20181;-73
2021/12/15 14:51:34;;;;;;;26.23;16.00;;;;;;;;;;5043372;28;20650;-73
2021/12/15 14:54:00;;;;;;;26.93;18.03;;;;;;;;;;5044776;28;20198;-73
2021/12/15 14:56:44;;;;;;;27.27;17.93;;;;;;;;;;5035799;28;20284;-73
2021/12/15 14:59:09;;;;;;;26.77;16.30;;;;;;;;;;5037741;28;20181;-72
2021/12/15 15:01:35;;;;;;;24.00;16.57;;;;;;;;;;5038553;28;20234;-74
2021/12/15 15:04:05;;;;;;;27.30;18.17;;;;;;;;;;5033901;28;20182;-75
2021/12/15 15:06:31;;;;;;;26.17;17.57;;;;;;;;;;5044897;28;20265;-72
2021/12/15 15:09:14;;;;;;;31.97;18.63;;;;;;;;;;5057714;28;20185;-73
2021/12/15 15:11:54;;;;;;;26.77;17.70;;;;;;;;;;5054034;28;20197;-72
2021/12/15 15:14:28;;;;;;;31.77;18.77;;;;;;;;;;5049884;28;20174;-75
2021/12/15 15:16:54;;;;;;;28.77;18.65;;;;;;;;;;5045472;28;20217;-73
2021/12/15 15:19:19;;;;;;;31.23;19.17;;;;;;;;;;5041879;28;20186;-73
2021/12/15 15:21:45;;;;;;;31.43;18.77;;;;;;;;;;5037753;28;20636;-72
2021/12/15 15:24:22;;;;;;;30.70;19.57;;;;;;;;;;5042210;28;20589;-74
2021/12/15 15:26:54;;;;;;;30.50;20.27;;;;;;;;;;5040455;28;20244;-72
2021/12/15 15:29:27;;;;;;;33.67;20.70;;;;;;;;;;5046400;28;20558;-73
2021/12/15 15:31:53;;;;;;;27.90;17.30;;;;;;;;;;5028746;28;20182;-72
2021/12/15 15:34:18;;;;;;;25.53;18.33;;;;;;;;;;5033251;28;20182;-73
2021/12/15 15:36:44;;;;;;;29.27;17.57;;;;;;;;;;5027831;28;20359;-76
2021/12/15 15:39:10;;;;;;;27.23;18.00;;;;;;;;;;5045122;28;20179;-73
2021/12/15 15:41:35;;;;;;;30.60;18.07;;;;;;;;;;5027901;28;20308;-72
2021/12/15 15:44:02;;;;;;;24.23;18.20;;;;;;;;;;5031359;28;20174;-72
2021/12/15 15:46:34;;;;;;;25.57;17.20;;;;;;;;;;5025960;28;20225;-76
2021/12/15 15:49:00;;;;;;;24.13;16.97;;;;;;;;;;5047997;28;20186;-74
2021/12/15 15:51:27;;;;;;;26.37;17.37;;;;;;;;;;5027377;28;20265;-72
2021/12/15 15:53:54;;;;;;;29.23;19.57;;;;;;;;;;5031014;28;20523;-73